< Typhoon 201315 2013 Season Typhoon 201317 >
Typhoon 201316 (YUTU)
General InformationTrack Information on Google MapsDetailed Wind InformationForecast History on Google MapsAccess Analytics MapList of All Images || NewsDisaster Info.WeblogTrackbackTyphoon FrontTwiphoonTyphoon Now!Typhoon ImaginationDisaster Info. XMLResourceGoogle EarthGE AnimationAtom FeedGeoJSON
Detalied Best Track (Time Zone = UTC)
Year Month Day Hour Lat. Long. Pressure (hPa) Wind (kt) Class Image Chart
2013 8 29 00 29.2 169.1 1008 0 2 Image Chart
2013 8 29 06 29.0 169.2 1008 0 2 Image Chart
2013 8 29 12 28.9 169.2 1008 0 2 Image Chart
2013 8 29 18 28.7 169.3 1006 0 2 Image Chart
2013 8 30 00 28.5 169.4 1006 0 2 Image Chart
2013 8 30 06 28.1 169.6 1004 0 2 Image Chart
2013 8 30 12 27.7 170.4 1004 0 2 Image Chart
2013 8 30 18 28.1 171.4 1004 0 2 Image Chart
2013 8 31 00 28.8 172.6 1004 0 2 Image Chart
2013 8 31 06 30.0 173.6 1004 0 2 Image Chart
2013 8 31 12 31.1 174.6 1002 0 2 Image Chart
2013 8 31 18 32.0 175.5 1002 0 2 Image Chart
2013 9 1 00 32.5 176.2 1002 35 3 Image Chart
2013 9 1 06 33.5 176.6 1002 35 3 Image Chart
2013 9 1 12 33.6 176.8 1002 35 3 Image Chart
2013 9 1 18 33.7 176.9 1002 0 2 Image Chart
2013 9 2 00 33.7 177.0 1004 0 2 Image Chart
2013 9 2 06 33.7 177.2 1004 0 2 Image Chart
2013 9 2 12 33.5 177.3 1004 0 2 Image Chart
2013 9 2 18 33.4 177.4 1004 0 2 Image Chart
2013 9 3 00 33.1 177.3 1004 0 2 Image Chart
2013 9 3 06 32.8 177.2 1006 0 2 Image Chart
2013 9 3 12 32.3 177.0 1006 0 2 Image Chart
2013 9 3 18 32.2 176.7 1008 0 2 Image Chart
2013 9 4 00 32.1 176.3 1008 0 2 Image Chart
2013 9 4 06 31.8 175.6 1008 0 2 Image Chart
2013 9 4 12 31.6 174.8 1012 0 2 Image Chart
2013 9 4 18 31.3 173.7 1012 0 2 Image Chart
2013 9 5 00 31.1 173.0 1012 0 2 Image Chart
2013 9 5 06 31.0 172.0 1012 0 2 Image Chart
Japan Meteorological Agency Best Track Data | Correction Date : 2013-10-01
< Typhoon 201315 2013 Season Typhoon 201317 >

Help